Latest Weather Observations for Marion Reef

IDQ60801

Issued at 10:02 pm EST Wednesday 18 January 2017 (issued every 30 minutes, with the page automatically refreshed every 10 minutes)

About weather observations | Map of weather stations | Latest weather observations for QLD | Other Formats
Station Details ID: 200704 Name: MARION REEF Lat: -19.10 Lon: 152.39 Height: 2.0 m
Data from the previous 72 hours. | See also: Recent months for locations in Queensland
Date/Time
EST
Temp
°C
App
Temp
°C
Dew
Point
°C
Rel
Hum
%
Delta-T
°C
Wind Press
QNH
hPa
Press
MSL
hPa
Rain since
9am
mm
Dir  Spd
km/h
Gust
km/h
Spd
kts
Gust
kts
18/10:00pm 28.1 - - - - ESE 30 33 16 18 1010.6 - -
18/09:30pm 28.4 - - - - ESE 28 32 15 17 1010.8 - -
18/09:00pm 28.2 - - - - ESE 30 33 16 18 1010.6 1010.6 -
18/08:30pm 28.3 - - - - SE 22 26 12 14 1010.5 - -
18/08:00pm 28.5 - - - - SE 22 26 12 14 1010.3 1010.3 -
18/07:30pm 28.4 - - - - SE 20 26 11 14 1010.2 - -
18/07:00pm 28.6 - - - - SE 22 24 12 13 1010.0 1010.0 -
18/06:30pm 28.7 - - - - ESE 20 24 11 13 1009.9 - -
18/06:00pm 28.6 - - - - ESE 20 26 11 14 1009.8 1009.7 -
18/05:30pm 28.5 - - - - SE 20 24 11 13 1009.9 - -
18/05:00pm 28.7 - - - - ESE 15 17 8 9 1009.8 1009.6 -
18/04:30pm 28.7 - - - - ESE 15 19 8 10 1009.6 - -
18/04:00pm 28.5 - - - - SE 17 19 9 10 1009.7 1009.5 -
18/03:30pm 28.7 - - - - ESE 15 19 8 10 1009.6 - -
18/03:00pm 28.8 - - - - SE 13 17 7 9 1009.9 1009.8 -
18/02:30pm 28.8 - - - - ESE 13 17 7 9 1010.2 - -
18/02:00pm 28.9 - - - - E 13 17 7 9 1010.5 1010.4 -
18/01:30pm 28.8 - - - - ESE 13 17 7 9 1010.8 - -
18/01:00pm 28.8 - - - - ESE 15 17 8 9 1011.1 1010.9 -
18/12:30pm 28.7 - - - - ESE 15 19 8 10 1011.4 - -
18/12:00pm 28.6 - - - - ESE 15 19 8 10 1011.6 1011.4 -
18/11:30am 28.8 - - - - E 19 20 10 11 1011.8 - -
18/11:00am 28.7 - - - - ESE 15 20 8 11 1012.1 1012.0 -
18/10:30am 28.8 - - - - ESE 13 17 7 9 1012.2 - -
18/10:00am 28.5 - - - - ESE 15 19 8 10 1012.3 1012.1 -
18/09:30am 28.6 - - - - ESE 17 20 9 11 1012.4 - -
18/09:00am 28.8 - - - - E 19 24 10 13 1012.4 1012.4 -
18/08:30am 28.4 - - - - E 20 24 11 13 1012.4 - -
18/08:00am 28.5 - - - - E 22 26 12 14 1012.2 1012.1 -
18/07:30am 28.4 - - - - E 22 28 12 15 1012.0 - -
18/07:00am 28.6 - - - - E 24 28 13 15 1011.7 1011.7 -
18/06:30am 28.4 - - - - E 26 32 14 17 1011.3 - -
18/06:00am 28.1 - - - - E 28 30 15 16 1011.2 1011.1 -
18/05:30am 28.1 - - - - ESE 30 35 16 19 1010.7 - -
18/05:00am 27.7 - - - - SE 26 30 14 16 1010.3 1010.2 -
18/04:30am 26.7 - - - - SE 28 32 15 17 1010.0 - -
18/04:00am 27.9 - - - - SE 30 33 16 18 1009.7 1009.7 -
18/03:30am 27.6 - - - - ESE 26 32 14 17 1009.8 - -
18/03:00am 27.2 - - - - SE 26 32 14 17 1010.0 1009.8 -
18/02:30am 27.6 - - - - SE 26 33 14 18 1010.1 - -
18/02:00am 27.8 - - - - ESE 24 26 13 14 1010.5 1010.3 -
18/01:30am 27.7 - - - - ESE 24 28 13 15 1010.7 - -
18/01:00am 27.8 - - - - ESE 26 30 14 16 1011.0 1010.9 -
18/12:30am 27.8 - - - - SE 28 33 15 18 1011.4 - -
18/12:00am 28.2 - - - - SE 26 32 14 17 1011.9 1011.7 -
 
Date/Time
EST
Temp
°C
App
Temp
°C
Dew
Point
°C
Rel
Hum
%
Delta-T
°C
Wind Press
QNH
hPa
Press
MSL
hPa
Rain since
9am
mm
Dir  Spd
km/h
Gust
km/h
Spd
kts
Gust
kts
17/11:30pm 28.2 - - - - SE 28 33 15 18 1012.2 - -
17/11:00pm 27.8 - - - - SE 30 35 16 19 1012.4 1012.2 -
17/10:30pm 27.4 - - - - SE 33 43 18 23 1012.6 - -
17/10:00pm 28.0 - - - - SE 32 35 17 19 1012.6 1012.5 -
17/09:30pm 27.9 - - - - SSE 33 37 18 20 1012.5 - -
17/09:00pm 28.2 - - - - SSE 30 35 16 19 1012.4 1012.4 -
17/08:30pm 27.8 - - - - SSE 28 32 15 17 1012.2 - -
17/08:00pm 27.5 - - - - SE 17 33 9 18 1012.1 1012.0 -
17/07:30pm 27.9 - - - - SSE 30 37 16 20 1011.8 - -
17/07:00pm 28.1 - - - - SSE 28 33 15 18 1011.7 1011.6 -
17/06:30pm 28.0 - - - - S 30 33 16 18 1011.6 - -
17/06:00pm 28.1 - - - - S 32 35 17 19 1011.4 1011.3 -
17/05:30pm 28.1 - - - - S 30 33 16 18 1011.2 - -
17/05:00pm 28.1 - - - - S 28 30 15 16 1011.2 1011.0 -
17/04:30pm 28.5 - - - - S 20 26 11 14 1011.2 - -
17/04:00pm 28.5 - - - - S 20 26 11 14 1011.2 1011.0 -
17/03:30pm 28.6 - - - - SSE 20 24 11 13 1011.2 - -
17/03:00pm 28.4 - - - - SSE 22 26 12 14 1011.2 1011.2 -
17/02:30pm 28.6 - - - - SSE 20 22 11 12 1011.5 - -
17/02:00pm 28.4 - - - - SSE 17 20 9 11 1011.7 1011.6 -
17/01:30pm 28.4 - - - - SE 19 20 10 11 1011.8 - -
17/01:00pm 28.4 - - - - SE 19 22 10 12 1012.1 1012.0 -
17/12:30pm 28.3 - - - - SE 22 26 12 14 1012.4 - -
17/12:00pm 28.6 - - - - SSE 20 24 11 13 1012.7 1012.6 -
17/11:30am 28.5 - - - - SE 19 22 10 12 1012.9 - -
17/11:00am 28.2 - - - - SE 20 22 11 12 1013.0 1012.9 -
17/10:30am 28.1 - - - - SE 19 20 10 11 1013.2 - -
17/10:00am 28.1 - - - - SE 19 24 10 13 1013.3 1013.2 -
17/09:30am 28.2 - - - - ESE 20 22 11 12 1013.4 - -
17/09:00am 27.8 - - - - SE 22 26 12 14 1013.2 1013.1 -
17/08:30am 27.9 - - - - ESE 20 24 11 13 1013.0 - -
17/08:00am 27.9 - - - - SE 24 28 13 15 1012.8 1012.8 -
17/07:30am 28.0 - - - - ESE 26 32 14 17 1012.6 - -
17/07:00am 28.2 - - - - ESE 26 32 14 17 1012.5 1012.4 -
17/06:30am 27.9 - - - - SE 28 33 15 18 1012.0 - -
17/06:00am 27.8 - - - - SE 32 35 17 19 1011.8 1011.7 -
17/05:30am 27.7 - - - - ESE 30 35 16 19 1011.4 - -
17/05:00am 27.6 - - - - SE 28 33 15 18 1010.9 1010.8 -
17/04:30am 27.6 - - - - SE 28 32 15 17 1010.6 - -
17/04:00am 27.8 - - - - SE 26 32 14 17 1010.6 1010.5 -
17/03:30am 27.7 - - - - SE 26 30 14 16 1010.6 - -
17/03:00am 27.6 - - - - SE 24 30 13 16 1010.6 1010.5 -
17/02:30am 27.7 - - - - SE 24 28 13 15 1010.6 - -
17/02:00am 27.8 - - - - SE 24 28 13 15 1010.8 1010.7 -
17/01:30am 27.8 - - - - SE 24 28 13 15 1011.0 - -
17/01:00am 27.6 - - - - SE 24 28 13 15 1011.3 1011.1 -
17/12:30am 27.7 - - - - SSE 24 28 13 15 1011.5 - -
17/12:00am 27.7 - - - - SSE 24 30 13 16 1011.8 1011.7 -
 
Date/Time
EST
Temp
°C
App
Temp
°C
Dew
Point
°C
Rel
Hum
%
Delta-T
°C
Wind Press
QNH
hPa
Press
MSL
hPa
Rain since
9am
mm
Dir  Spd
km/h
Gust
km/h
Spd
kts
Gust
kts
16/11:30pm 27.9 - - - - SE 24 28 13 15 1012.0 - -
16/11:00pm 27.9 - - - - SE 26 28 14 15 1012.2 1012.1 -
16/10:30pm 28.0 - - - - SE 22 28 12 15 1012.5 - -
16/10:00pm 27.8 - - - - SE 20 24 11 13 1012.6 1012.5 -
16/09:30pm 28.1 - - - - SE 22 26 12 14 1012.3 - -
16/09:00pm 28.0 - - - - SE 22 26 12 14 1012.1 1012.0 -
16/08:30pm 28.2 - - - - SE 20 24 11 13 1011.8 - -
16/08:00pm 28.2 - - - - ESE 17 19 9 10 1011.8 1011.7 -
16/07:30pm 28.3 - - - - ESE 17 20 9 11 1011.4 - -
16/07:00pm 28.2 - - - - SE 17 22 9 12 1011.2 1011.1 -
16/06:30pm 28.4 - - - - ESE 19 20 10 11 1010.9 - -
16/06:00pm 28.6 - - - - ESE 19 22 10 12 1010.7 1010.6 -
16/05:30pm 28.4 - - - - ESE 20 24 11 13 1010.2 - -
16/05:00pm 28.5 - - - - ESE 20 24 11 13 1010.0 1009.9 -
16/04:30pm 28.4 - - - - ESE 22 26 12 14 1009.8 - -
16/04:00pm 28.5 - - - - ESE 24 28 13 15 1009.4 1009.3 -
16/03:30pm 28.5 - - - - E 22 26 12 14 1009.6 - -
16/03:00pm 28.4 - - - - E 20 26 11 14 1009.6 1009.5 -
16/02:30pm 27.3 - - - - E 30 33 16 18 1009.7 - -
16/02:00pm 27.7 - - - - E 26 32 14 17 1010.0 1009.9 -
16/01:30pm 28.0 - - - - E 28 32 15 17 1010.0 - -
16/01:00pm 27.8 - - - - E 28 32 15 17 1010.3 1010.1 -
16/12:30pm 28.3 - - - - E 22 26 12 14 1010.4 - -
16/12:00pm 28.5 - - - - E 15 17 8 9 1010.6 1010.5 -
16/11:30am 28.1 - - - - ENE 20 22 11 12 1010.8 - -
16/11:00am 28.1 - - - - E 19 15 10 8 1011.0 1010.8 -
16/10:30am 27.9 - - - - SE 20 24 11 13 1011.1 - -
16/10:00am 28.4 - - - - ESE 19 19 10 10 1011.2 1011.0 -
16/09:30am 28.7 - - - - E 15 19 8 10 1011.1 - -
16/09:00am 28.7 - - - - E 19 20 10 11 1011.0 1011.0 -
16/08:30am 28.1 - - - - SSE 7 9 4 5 1011.0 - -
16/08:00am 27.5 - - - - E 20 26 11 14 1010.8 1010.7 -
16/07:30am 27.8 - - - - E 13 17 7 9 1010.5 - -
16/07:00am 28.3 - - - - E 13 15 7 8 1010.4 1010.3 -
16/06:30am 28.1 - - - - SSE 7 9 4 5 1010.1 - -
16/06:00am 27.8 - - - - SSE 7 9 4 5 1009.7 1009.7 -
16/05:30am 27.6 - - - - ENE 9 11 5 6 1009.2 - -
16/05:00am 27.5 - - - - NE 9 11 5 6 1008.8 1008.8 -
16/04:30am 27.4 - - - - W 9 13 5 7 1008.3 - -
16/04:00am 27.7 - - - - E 9 13 5 7 1008.0 1007.9 -
16/03:30am 27.8 - - - - NE 13 17 7 9 1008.0 - -
16/03:00am 28.2 - - - - E 13 17 7 9 1008.0 1007.9 -
16/02:30am 28.1 - - - - ESE 11 13 6 7 1008.3 - -
16/02:00am 28.1 - - - - NE 13 15 7 8 1008.6 1008.5 -
16/01:30am 28.0 - - - - SE 9 17 5 9 1009.0 - -
16/01:00am 28.1 - - - - S 6 7 3 4 1009.3 1009.3 -
16/12:30am 27.9 - - - - SW 7 9 4 5 1009.2 - -
16/12:00am 28.1 - - - - NNW 9 11 5 6 1009.4 1009.3 -
 
Date/Time
EST
Temp
°C
App
Temp
°C
Dew
Point
°C
Rel
Hum
%
Delta-T
°C
Wind Press
QNH
hPa
Press
MSL
hPa
Rain since
9am
mm
Dir  Spd
km/h
Gust
km/h
Spd
kts
Gust
kts
15/11:30pm 28.0 - - - - N 15 19 8 10 1009.8 - -
15/11:00pm 28.2 - - - - N 17 19 9 10 1010.0 1009.9 -
15/10:30pm 28.0 - - - - N 19 20 10 11 1010.2 - -

Other Formats:

Comma delimited format used in spreadsheet applications
http://www.bom.gov.au/fwo/IDQ60801/IDQ60801.94298.axf

JavaScript Object Notation format (JSON) in row-major order
http://www.bom.gov.au/fwo/IDQ60801/IDQ60801.94298.json